SBMT Airport Information

Runway Information
Runway 12 Length 5249 ft width 147 ft
Elevation 2379 ft Threshold 984 ft Heading 100
Runway 30 Length 5249 ft Width 147 ft
Elevation 2376 ft Threshold 492 ft Heading 280
Airport Frequencies
Type APP Name SAO PAULO Frequency 119.8 MHZ
Type GND Name GND Frequency 121.6 MHZ
Type OPS Name OPS Frequency 122.5 MHZ
Type TWR Name TWR Frequency 118.7 MHZ
Airport Navaids
Type NDB Name Marte Frequency 260 KHZ
Airport Weather Information & NOTAM
ADDS - METARS form results

(1528 UTC 13 May 2021)
Data provider http://aviationweather.gov/metar/data/
 
METAR text: SBMT 131500Z 14005KT 9999 SCT010 BKN015 OVC020 17/13 Q1023
Conditions at: SBMT (MARTE (CIV/MIL) , BR) observed 1500 UTC 13 May 2021
Temperature: 17.0°C (63°F)
Dewpoint: 13.0°C (55°F) [RH = 77%]
Pressure (altimeter): 30.21 inches Hg (1023.0 mb)
Winds: from the SE (140 degrees) at 6 MPH (5 knots; 2.6 m/s)
Visibility: 6 or more miles (10+ km)
Ceiling: 1500 feet AGL
Clouds: scattered clouds at 1000 feet AGL
broken clouds at 1500 feet AGL
overcast cloud deck at 2000 feet AGL
Weather: no significant weather observed at this time